createdAt,value
2023-02-11T00:01:44.272Z,36.70
2023-02-11T00:04:11.290Z,34.20
2023-02-11T00:06:38.385Z,37.27
2023-02-11T00:09:06.152Z,36.73
2023-02-11T00:11:33.396Z,34.60
2023-02-11T00:14:03.384Z,38.50
2023-02-11T00:16:32.274Z,36.07
2023-02-11T00:19:00.159Z,33.87
2023-02-11T00:21:27.333Z,36.85
2023-02-11T00:23:57.027Z,39.78
2023-02-11T00:26:25.964Z,43.75
2023-02-11T00:28:53.534Z,47.50
2023-02-11T00:31:21.749Z,39.00
2023-02-11T00:33:49.243Z,41.42
2023-02-11T00:36:18.827Z,39.08
2023-02-11T00:38:46.378Z,39.50
2023-02-11T00:41:13.871Z,46.22
2023-02-11T00:43:41.237Z,43.63
2023-02-11T00:46:08.851Z,39.92
2023-02-11T00:48:36.055Z,36.55
2023-02-11T00:51:04.157Z,39.85
2023-02-11T00:53:31.764Z,37.50
2023-02-11T00:55:59.022Z,36.90
2023-02-11T00:58:26.132Z,36.63
2023-02-11T01:00:54.111Z,36.63
2023-02-11T01:03:21.202Z,35.65
2023-02-11T01:05:48.797Z,35.80
2023-02-11T01:08:16.046Z,37.85
2023-02-11T01:10:44.000Z,37.55
2023-02-11T01:13:10.927Z,35.70
2023-02-11T01:15:38.060Z,37.30
2023-02-11T01:18:05.696Z,36.90
2023-02-11T01:20:32.875Z,37.92
2023-02-11T01:22:59.981Z,38.65
2023-02-11T01:25:27.106Z,39.45
2023-02-11T01:27:54.223Z,34.55
2023-02-11T01:30:21.351Z,38.10
2023-02-11T01:32:48.505Z,33.63
2023-02-11T01:35:15.609Z,34.88
2023-02-11T01:37:42.753Z,38.63
2023-02-11T01:40:13.216Z,38.00
2023-02-11T01:42:40.362Z,34.85
2023-02-11T01:45:27.339Z,35.00
2023-02-11T01:47:54.428Z,31.73
2023-02-11T01:50:21.507Z,37.78
2023-02-11T01:52:48.661Z,36.00
2023-02-11T01:55:36.164Z,35.33
2023-02-11T01:58:05.558Z,37.70
2023-02-11T02:00:36.238Z,35.93
2023-02-11T02:03:06.713Z,36.58
2023-02-11T02:05:40.827Z,36.67
2023-02-11T02:08:17.656Z,36.78
2023-02-11T02:10:46.238Z,37.22
2023-02-11T02:13:13.555Z,36.33
2023-02-11T02:15:42.351Z,34.97
2023-02-11T02:18:09.420Z,34.88
2023-02-11T02:20:43.824Z,35.00
2023-02-11T02:23:16.043Z,34.28
2023-02-11T02:26:03.797Z,35.75
2023-02-11T02:28:50.754Z,35.85
2023-02-11T02:31:37.811Z,35.33
2023-02-11T02:34:09.121Z,35.45
2023-02-11T02:36:47.671Z,32.55
2023-02-11T02:39:19.317Z,32.38
2023-02-11T02:41:47.386Z,36.20
2023-02-11T02:44:14.494Z,35.92
2023-02-11T02:46:41.713Z,38.13
2023-02-11T02:49:13.534Z,34.25
2023-02-11T02:51:40.623Z,34.67
2023-02-11T02:54:19.095Z,34.30
2023-02-11T02:56:52.032Z,33.17
2023-02-11T02:59:26.097Z,32.55
2023-02-11T03:02:03.318Z,31.95
2023-02-11T03:04:35.638Z,30.88
2023-02-11T03:07:14.403Z,30.77
2023-02-11T03:09:45.672Z,32.17
2023-02-11T03:12:13.443Z,34.83
2023-02-11T03:14:41.717Z,37.40
2023-02-11T03:17:09.822Z,34.07
2023-02-11T03:19:39.252Z,38.20
2023-02-11T03:22:08.960Z,35.70
2023-02-11T03:24:37.610Z,36.53
2023-02-11T03:27:09.996Z,35.78
2023-02-11T03:29:49.265Z,38.38
2023-02-11T03:32:20.551Z,34.40
2023-02-11T03:34:48.752Z,32.85
2023-02-11T03:37:21.358Z,33.40
2023-02-11T03:39:51.815Z,34.35
2023-02-11T03:42:20.213Z,33.47
2023-02-11T03:44:50.524Z,31.88
2023-02-11T03:47:20.731Z,32.45
2023-02-11T03:49:50.361Z,34.20
2023-02-11T03:52:18.926Z,33.08
2023-02-11T03:54:47.964Z,30.05
2023-02-11T03:57:15.071Z,30.50
2023-02-11T03:59:58.324Z,31.73
2023-02-11T04:02:27.390Z,33.40
2023-02-11T04:04:54.643Z,32.37
2023-02-11T04:07:21.735Z,33.70
2023-02-11T04:09:48.897Z,31.92
2023-02-11T04:12:16.012Z,33.00
2023-02-11T04:14:43.097Z,32.70
2023-02-11T04:17:10.217Z,31.92
2023-02-11T04:19:37.396Z,31.88
2023-02-11T04:22:04.723Z,29.88
2023-02-11T04:24:32.077Z,30.67
2023-02-11T04:26:59.216Z,29.35
2023-02-11T04:29:26.299Z,30.70
2023-02-11T04:31:53.504Z,29.98
2023-02-11T04:34:20.681Z,29.70
2023-02-11T04:36:47.817Z,29.95
2023-02-11T04:39:14.890Z,29.17
2023-02-11T04:41:42.050Z,27.17
2023-02-11T04:44:09.165Z,27.07
2023-02-11T04:46:36.390Z,28.20
2023-02-11T04:49:03.781Z,27.23
2023-02-11T04:51:31.091Z,28.23
2023-02-11T04:53:58.190Z,26.02
2023-02-11T04:56:25.333Z,28.17
2023-02-11T04:58:52.212Z,26.02
2023-02-11T05:01:19.326Z,24.73
2023-02-11T05:03:46.419Z,25.30
2023-02-11T05:06:13.769Z,26.95
2023-02-11T05:08:40.926Z,24.07
2023-02-11T05:11:08.783Z,25.20
2023-02-11T05:13:36.061Z,24.08
2023-02-11T05:16:03.103Z,24.50
2023-02-11T05:18:30.174Z,25.20
2023-02-11T05:20:57.586Z,23.33
2023-02-11T05:23:24.694Z,22.45
2023-02-11T05:25:52.083Z,23.60
2023-02-11T05:28:19.387Z,23.90
2023-02-11T05:30:46.572Z,22.88
2023-02-11T05:33:13.675Z,24.20
2023-02-11T05:35:40.748Z,24.27
2023-02-11T05:38:07.917Z,24.90
2023-02-11T05:40:35.029Z,24.48
2023-02-11T05:43:02.165Z,22.30
2023-02-11T05:45:29.267Z,22.80
2023-02-11T05:47:56.394Z,21.07
2023-02-11T05:50:23.563Z,25.03
2023-02-11T05:52:50.635Z,23.88
2023-02-11T05:55:17.950Z,23.30
2023-02-11T05:57:45.135Z,24.42
2023-02-11T06:00:12.518Z,23.02
2023-02-11T06:02:39.798Z,24.30
2023-02-11T06:05:07.287Z,24.27
2023-02-11T06:07:34.371Z,24.77
2023-02-11T06:10:01.563Z,24.02
2023-02-11T06:12:28.648Z,23.52
2023-02-11T06:14:55.336Z,25.63
2023-02-11T06:17:23.279Z,23.53
2023-02-11T06:19:50.539Z,26.65
2023-02-11T06:22:17.656Z,25.17
2023-02-11T06:25:00.350Z,25.40
2023-02-11T06:27:28.223Z,24.08
2023-02-11T06:29:55.337Z,22.42
2023-02-11T06:32:42.275Z,24.42
2023-02-11T06:35:11.927Z,22.92
2023-02-11T06:37:39.676Z,23.63
2023-02-11T06:40:06.952Z,23.30
2023-02-11T06:42:36.076Z,23.95
2023-02-11T06:45:05.873Z,25.75
2023-02-11T06:47:33.012Z,24.38
2023-02-11T06:50:00.139Z,25.67
2023-02-11T06:52:27.312Z,22.85
2023-02-11T06:54:54.405Z,24.60
2023-02-11T06:57:21.510Z,23.75
2023-02-11T06:59:48.577Z,24.40
2023-02-11T07:02:15.777Z,25.20
2023-02-11T07:04:42.925Z,22.02
2023-02-11T07:07:10.067Z,22.45
2023-02-11T07:09:37.153Z,22.20
2023-02-11T07:12:04.327Z,21.05
2023-02-11T07:14:31.401Z,20.88
2023-02-11T07:16:58.545Z,21.38
2023-02-11T07:19:25.608Z,21.42
2023-02-11T07:21:52.799Z,21.40
2023-02-11T07:24:19.908Z,21.27
2023-02-11T07:26:46.987Z,21.00
2023-02-11T07:29:14.115Z,21.10
2023-02-11T07:31:41.487Z,20.05
2023-02-11T07:34:08.570Z,20.40
2023-02-11T07:36:35.667Z,18.15
2023-02-11T07:39:02.777Z,19.40
2023-02-11T07:41:30.060Z,20.05
2023-02-11T07:43:57.240Z,20.75
2023-02-11T07:46:25.592Z,20.63
2023-02-11T07:48:53.186Z,19.45
2023-02-11T07:51:21.817Z,19.93
2023-02-11T07:53:48.952Z,20.88
2023-02-11T07:56:16.694Z,19.48
2023-02-11T07:58:44.134Z,18.88
2023-02-11T08:01:12.685Z,18.42
2023-02-11T08:03:41.943Z,17.80
2023-02-11T08:06:10.873Z,25.33
2023-02-11T08:08:38.152Z,22.35
2023-02-11T08:11:07.839Z,19.63
2023-02-11T08:13:35.138Z,18.80
2023-02-11T08:16:02.537Z,18.73
2023-02-11T08:18:29.659Z,20.03
2023-02-11T08:20:56.740Z,19.63
2023-02-11T08:23:24.454Z,18.63
2023-02-11T08:25:51.516Z,18.95
2023-02-11T08:28:18.633Z,19.08
2023-02-11T08:30:45.769Z,18.50
2023-02-11T08:33:12.850Z,19.00
2023-02-11T08:35:40.507Z,18.15
2023-02-11T08:38:07.765Z,18.38
2023-02-11T08:40:34.892Z,18.17
2023-02-11T08:43:02.027Z,17.63
2023-02-11T08:45:29.296Z,15.77
2023-02-11T08:47:56.465Z,15.57
2023-02-11T08:50:23.545Z,15.10
2023-02-11T08:52:52.403Z,15.65
2023-02-11T08:55:19.532Z,15.27
2023-02-11T08:57:46.618Z,17.17
2023-02-11T09:00:14.049Z,14.23
2023-02-11T09:02:41.253Z,15.90
2023-02-11T09:05:08.496Z,14.77
2023-02-11T09:07:35.561Z,14.68
2023-02-11T09:10:02.689Z,15.13
2023-02-11T09:12:29.750Z,13.52
2023-02-11T09:14:56.875Z,14.90
2023-02-11T09:17:24.020Z,14.20
2023-02-11T09:19:51.092Z,14.27
2023-02-11T09:22:18.655Z,15.55
2023-02-11T09:24:45.753Z,14.55
2023-02-11T09:27:13.077Z,13.82
2023-02-11T09:29:47.386Z,15.48
2023-02-11T09:32:14.770Z,14.27
2023-02-11T09:34:41.942Z,14.43
2023-02-11T09:37:08.702Z,15.98
2023-02-11T09:39:35.853Z,13.60
2023-02-11T09:42:22.828Z,15.53
2023-02-11T09:44:50.201Z,14.23
2023-02-11T09:47:28.769Z,14.57
2023-02-11T09:50:15.834Z,13.80
2023-02-11T09:53:02.825Z,16.77
2023-02-11T09:55:40.503Z,13.32
2023-02-11T09:58:12.687Z,14.03
2023-02-11T10:00:43.791Z,13.02
2023-02-11T10:03:19.545Z,13.25
2023-02-11T10:05:51.426Z,11.65
2023-02-11T10:08:38.450Z,15.20
2023-02-11T10:11:08.817Z,13.95
2023-02-11T10:13:55.817Z,13.23
2023-02-11T10:16:26.178Z,13.87
2023-02-11T10:18:53.270Z,13.80
2023-02-11T10:21:46.551Z,14.27
2023-02-11T10:24:14.875Z,13.60
2023-02-11T10:26:42.470Z,15.23
2023-02-11T10:29:29.495Z,14.90
2023-02-11T10:31:58.514Z,14.57
2023-02-11T10:34:25.656Z,14.45
2023-02-11T10:36:52.726Z,13.07
2023-02-11T10:39:20.834Z,14.30
2023-02-11T10:41:51.140Z,14.52
2023-02-11T10:44:28.223Z,13.27
2023-02-11T10:46:55.943Z,11.60
2023-02-11T10:49:42.989Z,13.57
2023-02-11T10:52:13.824Z,14.63
2023-02-11T10:54:41.085Z,16.65
2023-02-11T10:57:13.899Z,13.02
2023-02-11T10:59:41.050Z,17.35
2023-02-11T11:02:22.226Z,16.67
2023-02-11T11:04:49.508Z,13.70
2023-02-11T11:07:25.771Z,13.40
2023-02-11T11:09:59.566Z,14.13
2023-02-11T11:12:31.771Z,14.45
2023-02-11T11:15:00.656Z,17.47
2023-02-11T11:17:29.179Z,15.68
2023-02-11T11:20:15.041Z,16.83
2023-02-11T11:22:42.926Z,19.48
2023-02-11T11:25:27.556Z,15.82
2023-02-11T11:27:58.193Z,15.88
2023-02-11T11:30:33.226Z,17.10
2023-02-11T11:33:01.341Z,17.95
2023-02-11T11:35:32.885Z,16.10
2023-02-11T11:38:02.367Z,20.67
2023-02-11T11:40:31.168Z,16.30
2023-02-11T11:43:07.544Z,18.17
2023-02-11T11:45:34.633Z,18.83
2023-02-11T11:48:01.642Z,19.33
2023-02-11T11:50:28.756Z,16.52
2023-02-11T11:53:00.112Z,17.23
2023-02-11T11:55:32.232Z,16.20
2023-02-11T11:57:59.370Z,15.98
2023-02-11T12:00:30.666Z,18.48
2023-02-11T12:03:18.563Z,16.77
2023-02-11T12:06:05.680Z,16.13
2023-02-11T12:08:32.794Z,15.65
2023-02-11T12:11:03.163Z,15.48
2023-02-11T12:13:45.818Z,16.33
2023-02-11T12:16:32.830Z,15.10
2023-02-11T12:19:19.873Z,16.10
2023-02-11T12:21:55.337Z,16.98
2023-02-11T12:24:23.833Z,14.90
2023-02-11T12:27:11.021Z,17.70
2023-02-11T12:29:44.083Z,16.98
2023-02-11T12:32:31.937Z,17.88
2023-02-11T12:34:59.033Z,16.27
2023-02-11T12:37:34.076Z,16.43
2023-02-11T12:40:09.940Z,17.02
2023-02-11T12:43:05.248Z,16.55
2023-02-11T12:45:35.833Z,16.88
2023-02-11T12:48:10.398Z,18.95
2023-02-11T12:50:45.655Z,16.07
2023-02-11T12:53:22.615Z,16.33
2023-02-11T12:55:51.903Z,15.20
2023-02-11T12:58:25.370Z,15.10
2023-02-11T13:00:59.524Z,16.13
2023-02-11T13:03:33.138Z,16.02
2023-02-11T13:06:03.073Z,14.93
2023-02-11T13:08:32.711Z,16.33
2023-02-11T13:11:02.052Z,16.63
2023-02-11T13:13:32.627Z,15.30
2023-02-11T13:16:06.510Z,18.08
2023-02-11T13:18:53.655Z,16.77
2023-02-11T13:21:40.635Z,17.70
2023-02-11T13:24:13.907Z,15.25
2023-02-11T13:27:00.929Z,15.90
2023-02-11T13:29:28.364Z,15.60
2023-02-11T13:31:56.743Z,16.88
2023-02-11T13:34:43.981Z,16.98
2023-02-11T13:37:34.469Z,16.08
2023-02-11T13:40:03.205Z,17.63
2023-02-11T13:42:30.747Z,15.83
2023-02-11T13:44:58.212Z,18.60
2023-02-11T13:47:29.277Z,17.95
2023-02-11T13:49:56.834Z,19.02
2023-02-11T13:52:26.803Z,21.35
2023-02-11T13:54:55.480Z,17.58
2023-02-11T13:57:26.294Z,19.17
2023-02-11T13:59:55.138Z,18.10
2023-02-11T14:02:42.184Z,20.15
2023-02-11T14:05:29.202Z,17.08
2023-02-11T14:08:31.851Z,18.35
2023-02-11T14:11:00.206Z,17.95
2023-02-11T14:13:27.331Z,19.42
2023-02-11T14:16:13.408Z,16.88
2023-02-11T14:18:47.837Z,20.08
2023-02-11T14:21:22.945Z,18.58
2023-02-11T14:23:53.279Z,18.42
2023-02-11T14:26:20.407Z,20.60
2023-02-11T14:28:50.153Z,18.67
2023-02-11T14:31:21.920Z,17.95
2023-02-11T14:33:50.169Z,17.58
2023-02-11T14:36:18.218Z,17.92
2023-02-11T14:39:05.233Z,17.75
2023-02-11T14:41:39.408Z,18.65
2023-02-11T14:44:08.076Z,16.73
2023-02-11T14:46:35.404Z,18.92
2023-02-11T14:49:03.216Z,18.10
2023-02-11T14:51:32.200Z,18.27
2023-02-11T14:54:02.325Z,17.95
2023-02-11T14:56:30.798Z,19.00
2023-02-11T14:58:58.765Z,18.67
2023-02-11T15:01:31.407Z,17.92
2023-02-11T15:04:01.157Z,20.23
2023-02-11T15:06:32.887Z,18.63
2023-02-11T15:09:05.415Z,16.67
2023-02-11T15:11:35.195Z,15.77
2023-02-11T15:14:08.552Z,24.10
2023-02-11T15:16:35.880Z,18.88
2023-02-11T15:19:07.537Z,18.05
2023-02-11T15:21:36.226Z,17.38
2023-02-11T15:24:06.379Z,18.00
2023-02-11T15:26:33.937Z,20.73
2023-02-11T15:29:01.088Z,18.80
2023-02-11T15:31:29.331Z,20.10
2023-02-11T15:33:56.708Z,20.98
2023-02-11T15:36:28.397Z,19.55
2023-02-11T15:39:15.490Z,18.27
2023-02-11T15:41:44.303Z,19.25
2023-02-11T15:44:27.807Z,22.55
2023-02-11T15:46:54.909Z,19.50
2023-02-11T15:49:23.200Z,19.25
2023-02-11T15:51:50.786Z,21.63
2023-02-11T15:54:19.780Z,19.27
2023-02-11T15:56:49.748Z,22.02
2023-02-11T15:59:18.254Z,22.35
2023-02-11T16:01:45.688Z,20.15
2023-02-11T16:04:23.404Z,18.58
2023-02-11T16:06:51.256Z,19.83
2023-02-11T16:09:19.354Z,19.85
2023-02-11T16:11:46.326Z,20.17
2023-02-11T16:14:29.979Z,21.45
2023-02-11T16:16:58.930Z,18.83
2023-02-11T16:19:26.826Z,17.90
2023-02-11T16:21:54.807Z,20.60
2023-02-11T16:24:25.190Z,20.13
2023-02-11T16:26:54.036Z,18.25
2023-02-11T16:29:25.118Z,20.97
2023-02-11T16:31:53.516Z,20.58
2023-02-11T16:34:22.047Z,20.77
2023-02-11T16:36:50.191Z,21.55
2023-02-11T16:39:17.884Z,21.13
2023-02-11T16:41:45.229Z,20.23
2023-02-11T16:44:11.958Z,21.70
2023-02-11T16:46:39.181Z,22.70
2023-02-11T16:49:11.176Z,23.38
2023-02-11T16:51:39.860Z,19.23
2023-02-11T16:54:06.967Z,18.42
2023-02-11T16:56:34.059Z,19.80
2023-02-11T16:59:01.115Z,19.95
2023-02-11T17:01:28.381Z,22.10
2023-02-11T17:03:55.486Z,20.52
2023-02-11T17:06:22.637Z,20.13
2023-02-11T17:08:49.723Z,20.95
2023-02-11T17:11:17.876Z,21.52
2023-02-11T17:13:44.985Z,20.92
2023-02-11T17:16:16.538Z,21.15
2023-02-11T17:18:43.924Z,22.05
2023-02-11T17:21:10.987Z,23.08
2023-02-11T17:23:38.204Z,22.52
2023-02-11T17:26:05.830Z,24.10
2023-02-11T17:28:33.202Z,24.60
2023-02-11T17:31:00.892Z,20.70
2023-02-11T17:33:28.712Z,22.73
2023-02-11T17:35:55.808Z,25.65
2023-02-11T17:38:22.892Z,23.17
2023-02-11T17:40:57.867Z,25.00
2023-02-11T17:43:25.443Z,23.83
2023-02-11T17:45:52.800Z,22.13
2023-02-11T17:48:20.148Z,22.15
2023-02-11T17:50:47.312Z,23.33
2023-02-11T17:53:14.442Z,23.30
2023-02-11T17:55:41.868Z,23.20
2023-02-11T17:58:08.993Z,24.08
2023-02-11T18:00:36.207Z,23.55
2023-02-11T18:03:03.666Z,25.83
2023-02-11T18:05:35.184Z,25.67
2023-02-11T18:08:02.294Z,23.98
2023-02-11T18:10:29.568Z,26.15
2023-02-11T18:12:56.632Z,25.85
2023-02-11T18:15:23.943Z,25.97
2023-02-11T18:17:51.111Z,25.67
2023-02-11T18:20:18.390Z,24.30
2023-02-11T18:22:45.588Z,23.92
2023-02-11T18:25:15.170Z,27.00
2023-02-11T18:27:42.780Z,25.65
2023-02-11T18:30:14.194Z,26.92
2023-02-11T18:32:41.539Z,28.27
2023-02-11T18:35:14.790Z,28.63
2023-02-11T18:37:42.869Z,29.83
2023-02-11T18:40:10.577Z,27.15
2023-02-11T18:42:37.740Z,26.45
2023-02-11T18:45:07.028Z,26.23
2023-02-11T18:47:34.222Z,27.27
2023-02-11T18:50:01.368Z,25.55
2023-02-11T18:52:28.474Z,29.35
2023-02-11T18:54:55.627Z,31.05
2023-02-11T18:57:22.719Z,28.90
2023-02-11T18:59:50.650Z,33.20
2023-02-11T19:02:18.406Z,35.60
2023-02-11T19:04:45.657Z,32.80
2023-02-11T19:07:12.950Z,30.00
2023-02-11T19:09:40.053Z,25.00
2023-02-11T19:12:08.567Z,25.20
2023-02-11T19:14:36.286Z,25.70
2023-02-11T19:17:04.823Z,25.60
2023-02-11T19:19:32.880Z,25.83
2023-02-11T19:22:00.460Z,25.67
2023-02-11T19:24:28.943Z,22.38
2023-02-11T19:26:57.355Z,23.58
2023-02-11T19:29:24.859Z,22.77
2023-02-11T19:31:52.268Z,25.17
2023-02-11T19:34:22.830Z,23.65
2023-02-11T19:36:50.437Z,28.33
2023-02-11T19:39:18.532Z,25.98
2023-02-11T19:41:45.686Z,24.45
2023-02-11T19:44:13.814Z,23.88
2023-02-11T19:46:42.031Z,23.92
2023-02-11T19:49:10.618Z,26.35
2023-02-11T19:51:39.208Z,25.07
2023-02-11T19:54:06.991Z,24.38
2023-02-11T19:56:33.825Z,26.35
2023-02-11T19:59:02.826Z,24.67
2023-02-11T20:01:30.070Z,26.15
2023-02-11T20:03:57.726Z,28.65
2023-02-11T20:06:26.310Z,23.98
2023-02-11T20:08:57.273Z,25.13
2023-02-11T20:11:25.517Z,25.52
2023-02-11T20:13:52.721Z,27.55
2023-02-11T20:16:21.009Z,26.40
2023-02-11T20:18:48.684Z,26.85
2023-02-11T20:21:17.535Z,27.08
2023-02-11T20:23:46.499Z,26.03
2023-02-11T20:26:15.116Z,25.92
2023-02-11T20:28:42.631Z,24.23
2023-02-11T20:31:11.013Z,27.25
2023-02-11T20:33:38.450Z,27.23
2023-02-11T20:36:06.883Z,30.17
2023-02-11T20:38:34.279Z,31.25
2023-02-11T20:41:03.650Z,29.48
2023-02-11T20:43:31.296Z,28.77
2023-02-11T20:46:03.578Z,28.65
2023-02-11T20:48:30.696Z,30.58
2023-02-11T20:51:04.139Z,30.05
2023-02-11T20:53:31.216Z,26.73
2023-02-11T20:56:01.344Z,27.88
2023-02-11T20:58:28.423Z,26.83
2023-02-11T21:00:55.504Z,26.45
2023-02-11T21:03:22.690Z,27.40
2023-02-11T21:05:49.787Z,28.13
2023-02-11T21:08:16.883Z,26.90
2023-02-11T21:10:44.022Z,30.13
2023-02-11T21:13:11.197Z,31.25
2023-02-11T21:15:40.277Z,28.05
2023-02-11T21:18:07.398Z,29.00
2023-02-11T21:20:34.593Z,28.73
2023-02-11T21:23:01.717Z,26.90
2023-02-11T21:25:29.751Z,26.83
2023-02-11T21:27:56.930Z,24.42
2023-02-11T21:30:24.088Z,24.98
2023-02-11T21:32:51.211Z,26.15
2023-02-11T21:35:18.408Z,30.42
2023-02-11T21:37:45.488Z,27.42
2023-02-11T21:40:14.765Z,28.23
2023-02-11T21:42:41.973Z,29.83
2023-02-11T21:45:09.407Z,28.33
2023-02-11T21:47:36.509Z,25.17
2023-02-11T21:50:03.620Z,25.48
2023-02-11T21:52:30.719Z,24.77
2023-02-11T21:54:57.843Z,26.63
2023-02-11T21:57:25.060Z,25.48
2023-02-11T21:59:51.730Z,28.58
2023-02-11T22:02:19.087Z,27.90
2023-02-11T22:04:46.336Z,26.50
2023-02-11T22:07:13.479Z,27.02
2023-02-11T22:09:40.692Z,24.60
2023-02-11T22:12:08.867Z,27.10
2023-02-11T22:14:36.622Z,27.83
2023-02-11T22:17:04.090Z,33.05
2023-02-11T22:19:32.888Z,32.07
2023-02-11T22:22:00.040Z,29.95
2023-02-11T22:24:27.132Z,25.95
2023-02-11T22:26:54.203Z,25.00
2023-02-11T22:29:21.307Z,27.52
2023-02-11T22:31:48.514Z,25.02
2023-02-11T22:34:15.609Z,27.15
2023-02-11T22:36:44.602Z,24.90
2023-02-11T22:39:13.095Z,25.95
2023-02-11T22:41:41.827Z,22.48
2023-02-11T22:44:09.010Z,25.30
2023-02-11T22:46:36.571Z,23.70
2023-02-11T22:49:03.981Z,28.02
2023-02-11T22:51:31.900Z,26.88
2023-02-11T22:53:59.044Z,25.73
2023-02-11T22:56:26.346Z,23.73
2023-02-11T22:58:53.828Z,26.80
2023-02-11T23:01:21.031Z,25.33
2023-02-11T23:03:48.294Z,25.58
2023-02-11T23:06:15.731Z,24.23
2023-02-11T23:08:43.304Z,22.50
2023-02-11T23:11:14.010Z,22.80
2023-02-11T23:13:41.833Z,21.93
2023-02-11T23:16:10.247Z,23.02
2023-02-11T23:18:38.408Z,23.73
2023-02-11T23:21:06.959Z,21.10
2023-02-11T23:23:34.585Z,21.65
2023-02-11T23:26:01.718Z,22.45
2023-02-11T23:28:29.143Z,22.25
2023-02-11T23:30:56.331Z,22.73
2023-02-11T23:33:23.656Z,23.45
2023-02-11T23:35:50.277Z,21.23
2023-02-11T23:38:17.388Z,22.13
2023-02-11T23:40:44.478Z,24.65
2023-02-11T23:43:11.540Z,25.05
2023-02-11T23:45:38.644Z,28.77
2023-02-11T23:48:05.781Z,32.38
2023-02-11T23:50:33.793Z,29.07
2023-02-11T23:53:00.999Z,27.38
2023-02-11T23:55:28.101Z,30.52
2023-02-11T23:57:55.404Z,28.80
